createdAt,value
2022-12-09T00:00:38.807Z,42.44
2022-12-09T01:03:06.361Z,40.19
2022-12-09T01:04:25.599Z,29.12
2022-12-09T01:22:55.779Z,29.60
2022-12-09T01:41:47.328Z,29.12
2022-12-09T01:50:25.327Z,28.12
2022-12-09T01:51:20.852Z,23.44
2022-12-09T01:52:26.414Z,25.44
2022-12-09T01:53:33.334Z,30.00
2022-12-09T01:54:43.108Z,23.87
2022-12-09T01:55:50.033Z,27.13
2022-12-09T01:56:55.512Z,25.31
2022-12-09T01:58:00.199Z,29.37
2022-12-09T01:59:14.751Z,28.94
2022-12-09T02:00:20.367Z,29.37
2022-12-09T02:01:24.711Z,28.06
2022-12-09T02:02:30.536Z,30.40
2022-12-09T02:03:35.245Z,27.19
2022-12-09T02:04:44.763Z,26.25
2022-12-09T02:05:51.264Z,26.69
2022-12-09T02:06:56.849Z,24.00
2022-12-09T02:08:01.367Z,27.25
2022-12-09T02:09:07.461Z,32.00
2022-12-09T02:10:15.247Z,29.12
2022-12-09T02:11:45.290Z,24.75
2022-12-09T02:12:53.933Z,27.56
2022-12-09T02:14:14.668Z,25.00
2022-12-09T02:15:26.137Z,28.00
2022-12-09T02:16:34.799Z,30.20
2022-12-09T02:17:51.480Z,31.00
2022-12-09T02:20:40.306Z,29.63
2022-12-09T02:21:47.842Z,33.87
2022-12-09T02:23:06.796Z,25.94
2022-12-09T02:24:20.106Z,22.19
2022-12-09T07:09:19.949Z,40.27
2022-12-09T07:10:29.051Z,44.63
2022-12-09T07:11:33.621Z,48.19
2022-12-09T07:12:41.397Z,40.94
2022-12-09T07:13:47.403Z,43.00
2022-12-09T07:14:51.615Z,48.20
2022-12-09T08:43:15.276Z,49.06
2022-12-09T08:44:21.019Z,47.62
2022-12-09T08:45:25.562Z,44.56
2022-12-09T08:46:31.537Z,45.00
2022-12-09T14:23:04.750Z,46.25
2022-12-09T14:24:14.406Z,53.06
2022-12-09T14:25:29.942Z,55.88
2022-12-09T14:26:44.818Z,56.25
2022-12-09T14:28:16.035Z,46.94
2022-12-09T14:29:48.282Z,59.50
2022-12-09T14:31:08.027Z,56.44
2022-12-09T14:32:23.052Z,60.67
2022-12-09T14:33:35.908Z,61.31
2022-12-09T14:34:43.186Z,62.81
2022-12-09T14:35:50.079Z,64.37
2022-12-09T14:39:53.741Z,64.25
2022-12-09T14:41:17.738Z,54.47
2022-12-09T14:42:27.535Z,73.19
2022-12-09T14:43:48.611Z,62.06
2022-12-09T14:45:12.411Z,73.47
2022-12-09T14:46:24.015Z,65.75
2022-12-09T14:47:31.359Z,54.81
2022-12-09T14:48:40.287Z,61.60
2022-12-09T15:48:01.358Z,58.25
2022-12-09T15:49:20.387Z,67.06
2022-12-09T15:52:00.099Z,65.75
2022-12-09T15:53:33.825Z,65.81
2022-12-09T15:54:43.197Z,67.31
2022-12-09T15:55:51.697Z,61.81
2022-12-09T15:57:05.176Z,61.50
2022-12-09T15:58:50.415Z,64.44
2022-12-09T15:59:42.954Z,60.80
2022-12-09T16:00:51.688Z,57.33
2022-12-09T16:02:01.412Z,52.69
2022-12-09T16:03:18.237Z,59.31
2022-12-09T16:04:25.437Z,55.38
2022-12-09T16:05:34.913Z,60.67
2022-12-09T16:06:38.126Z,60.81
2022-12-09T16:07:54.068Z,64.81
2022-12-09T16:09:05.163Z,64.33
2022-12-09T16:10:17.102Z,61.88
2022-12-09T16:12:39.123Z,72.93
2022-12-09T16:13:20.361Z,90.27
2022-12-09T16:14:25.424Z,82.81
2022-12-09T17:20:50.894Z,62.67
2022-12-09T17:23:42.232Z,62.33
2022-12-09T17:59:36.448Z,67.62
